createdAt,value
2023-05-05T00:01:25.665Z,8.90
2023-05-05T00:03:52.580Z,8.90
2023-05-05T00:06:19.628Z,8.80
2023-05-05T00:08:46.923Z,8.90
2023-05-05T00:11:13.769Z,8.80
2023-05-05T00:13:40.613Z,8.80
2023-05-05T00:16:07.753Z,8.80
2023-05-05T00:18:34.728Z,8.80
2023-05-05T00:21:01.582Z,8.80
2023-05-05T00:23:28.511Z,8.80
2023-05-05T00:25:55.396Z,8.80
2023-05-05T00:28:22.354Z,8.70
2023-05-05T00:30:49.272Z,8.80
2023-05-05T00:33:16.233Z,8.70
2023-05-05T00:35:43.229Z,8.70
2023-05-05T00:38:10.078Z,8.80
2023-05-05T00:40:37.318Z,8.70
2023-05-05T00:43:04.367Z,8.70
2023-05-05T00:45:31.393Z,8.70
2023-05-05T00:48:00.182Z,8.70
2023-05-05T00:50:29.153Z,8.80
2023-05-05T00:53:06.784Z,8.70
2023-05-05T00:55:34.915Z,8.70
2023-05-05T00:58:02.867Z,8.70
2023-05-05T01:00:30.833Z,8.70
2023-05-05T01:02:58.012Z,8.70
2023-05-05T01:05:26.128Z,8.70
2023-05-05T01:08:22.240Z,8.70
2023-05-05T01:11:07.425Z,8.70
2023-05-05T01:13:49.442Z,8.60
2023-05-05T01:16:24.530Z,8.60
2023-05-05T01:19:00.734Z,8.60
2023-05-05T01:21:33.802Z,8.60
2023-05-05T01:24:06.740Z,8.60
2023-05-05T01:27:06.239Z,8.60
2023-05-05T01:29:56.449Z,8.60
2023-05-05T01:32:27.419Z,8.60
2023-05-05T01:35:01.477Z,8.50
2023-05-05T01:37:38.188Z,8.50
2023-05-05T01:40:08.152Z,8.50
2023-05-05T01:42:38.261Z,8.50
2023-05-05T01:45:07.586Z,8.50
2023-05-05T01:47:36.201Z,8.50
2023-05-05T01:50:04.188Z,8.40
2023-05-05T01:52:32.262Z,8.40
2023-05-05T01:55:00.518Z,8.40
2023-05-05T01:57:31.096Z,8.40
2023-05-05T02:00:00.886Z,8.40
2023-05-05T02:02:29.074Z,8.30
2023-05-05T02:04:58.023Z,8.30
2023-05-05T02:07:25.622Z,8.40
2023-05-05T02:09:53.246Z,8.30
2023-05-05T02:12:20.777Z,8.30
2023-05-05T02:14:48.191Z,8.20
2023-05-05T02:17:16.584Z,8.20
2023-05-05T02:19:45.862Z,8.20
2023-05-05T02:22:12.788Z,8.20
2023-05-05T02:24:39.697Z,8.20
2023-05-05T02:27:08.450Z,8.10
2023-05-05T02:29:41.793Z,8.10
2023-05-05T02:32:18.035Z,8.10
2023-05-05T02:34:47.426Z,8.10
2023-05-05T02:37:21.365Z,8.10
2023-05-05T02:39:54.431Z,8.00
2023-05-05T02:42:23.628Z,8.10
2023-05-05T02:44:52.213Z,8.00
2023-05-05T02:47:20.776Z,8.00
2023-05-05T02:49:47.610Z,8.00
2023-05-05T02:52:14.538Z,8.10
2023-05-05T02:54:41.418Z,7.90
2023-05-05T02:57:10.145Z,7.90
2023-05-05T03:00:26.631Z,7.90
2023-05-05T03:03:05.774Z,7.90
2023-05-05T03:05:57.771Z,7.80
2023-05-05T03:08:33.124Z,7.80
2023-05-05T03:11:04.566Z,7.80
2023-05-05T03:13:34.594Z,7.90
2023-05-05T03:16:02.144Z,7.80
2023-05-05T03:18:30.755Z,7.80
2023-05-05T03:20:59.195Z,7.80
2023-05-05T03:23:26.305Z,7.90
2023-05-05T03:25:53.160Z,7.80
2023-05-05T03:28:20.061Z,7.80
2023-05-05T03:30:47.033Z,7.80
2023-05-05T03:33:13.897Z,7.80
2023-05-05T03:35:40.805Z,7.80
2023-05-05T03:38:07.680Z,7.80
2023-05-05T03:40:43.574Z,7.80
2023-05-05T03:43:11.493Z,7.80
2023-05-05T03:45:38.460Z,7.80
2023-05-05T03:48:06.135Z,7.70
2023-05-05T03:50:33.063Z,7.70
2023-05-05T03:52:59.927Z,7.80
2023-05-05T03:55:26.844Z,7.70
2023-05-05T03:57:53.711Z,7.80
2023-05-05T04:00:20.729Z,7.80
2023-05-05T04:02:47.646Z,7.80
2023-05-05T04:05:14.693Z,7.80
2023-05-05T04:07:41.538Z,7.80
2023-05-05T04:10:09.154Z,7.90
2023-05-05T04:12:36.284Z,7.90
2023-05-05T04:15:03.328Z,7.90
2023-05-05T04:17:30.184Z,7.90
2023-05-05T04:19:57.073Z,7.90
2023-05-05T04:22:23.971Z,7.90
2023-05-05T04:24:50.872Z,7.90
2023-05-05T04:27:17.755Z,7.90
2023-05-05T04:29:44.574Z,7.90
2023-05-05T04:32:11.433Z,7.90
2023-05-05T04:34:38.282Z,7.90
2023-05-05T04:37:05.172Z,7.90
2023-05-05T04:39:32.086Z,7.90
2023-05-05T04:41:58.976Z,7.90
2023-05-05T04:44:25.825Z,7.90
2023-05-05T04:46:52.748Z,7.90
2023-05-05T04:49:19.687Z,7.90
2023-05-05T04:51:46.532Z,8.00
2023-05-05T04:54:13.421Z,8.00
2023-05-05T04:56:40.286Z,8.00
2023-05-05T04:59:07.147Z,8.00
2023-05-05T05:01:34.791Z,8.00
2023-05-05T05:04:03.305Z,8.00
2023-05-05T05:06:30.235Z,8.00
2023-05-05T05:08:57.056Z,8.00
2023-05-05T05:11:23.965Z,8.10
2023-05-05T05:13:50.924Z,8.10
2023-05-05T05:16:17.904Z,8.10
2023-05-05T05:18:44.789Z,8.20
2023-05-05T05:21:12.172Z,8.20
2023-05-05T05:23:39.061Z,8.30
2023-05-05T05:26:06.388Z,8.40
2023-05-05T05:28:33.219Z,8.50
2023-05-05T05:31:00.188Z,8.60
2023-05-05T05:33:27.055Z,8.70
2023-05-05T05:35:53.886Z,8.70
2023-05-05T05:38:20.751Z,8.80
2023-05-05T05:40:47.642Z,8.80
2023-05-05T05:43:14.513Z,8.90
2023-05-05T05:45:41.646Z,8.90
2023-05-05T05:48:08.604Z,9.00
2023-05-05T05:50:35.520Z,9.00
2023-05-05T05:53:02.439Z,9.00
2023-05-05T05:55:29.399Z,9.00
2023-05-05T05:57:56.366Z,9.00
2023-05-05T06:00:23.426Z,9.10
2023-05-05T06:02:50.469Z,9.10
2023-05-05T06:05:17.459Z,9.20
2023-05-05T06:07:44.357Z,9.30
2023-05-05T06:10:22.555Z,9.40
2023-05-05T06:12:54.110Z,9.50
2023-05-05T06:15:21.036Z,9.60
2023-05-05T06:17:47.895Z,9.70
2023-05-05T06:20:14.829Z,9.80
2023-05-05T06:22:41.744Z,9.90
2023-05-05T06:25:08.938Z,10.10
2023-05-05T06:27:35.803Z,10.20
2023-05-05T06:30:02.644Z,10.40
2023-05-05T06:32:29.609Z,10.40
2023-05-05T06:34:56.566Z,10.30
2023-05-05T06:37:23.457Z,10.30
2023-05-05T06:39:50.315Z,10.30
2023-05-05T06:42:17.273Z,10.40
2023-05-05T06:44:44.188Z,10.30
2023-05-05T06:47:11.044Z,10.30
2023-05-05T06:49:44.068Z,10.30
2023-05-05T06:52:10.942Z,10.40
2023-05-05T06:54:37.798Z,10.40
2023-05-05T06:57:07.539Z,10.50
2023-05-05T06:59:34.563Z,10.50
2023-05-05T07:02:04.476Z,10.70
2023-05-05T07:04:31.396Z,10.80
2023-05-05T07:06:58.328Z,10.90
2023-05-05T07:09:25.303Z,11.10
2023-05-05T07:11:52.155Z,11.50
2023-05-05T07:14:19.051Z,11.60
2023-05-05T07:16:45.917Z,11.70
2023-05-05T07:19:12.778Z,11.70
2023-05-05T07:21:39.702Z,11.50
2023-05-05T07:24:07.080Z,11.60
2023-05-05T07:26:34.176Z,11.70
2023-05-05T07:29:02.823Z,11.40
2023-05-05T07:31:29.717Z,11.50
2023-05-05T07:33:56.680Z,11.50
2023-05-05T07:36:23.617Z,11.70
2023-05-05T07:38:50.525Z,11.80
2023-05-05T07:41:17.412Z,12.00
2023-05-05T07:43:44.775Z,11.90
2023-05-05T07:46:12.320Z,11.80
2023-05-05T07:48:39.723Z,11.90
2023-05-05T07:51:06.781Z,12.10
2023-05-05T07:53:33.661Z,12.10
2023-05-05T07:56:00.505Z,12.30
2023-05-05T07:58:27.372Z,12.50
2023-05-05T08:00:54.192Z,12.70
2023-05-05T08:03:21.182Z,12.80
2023-05-05T08:05:50.552Z,12.80
2023-05-05T08:08:18.532Z,12.70
2023-05-05T08:10:45.446Z,12.70
2023-05-05T08:13:12.455Z,12.70
2023-05-05T08:15:39.370Z,12.90
2023-05-05T08:18:09.811Z,12.70
2023-05-05T08:20:36.719Z,12.80
2023-05-05T08:23:03.635Z,12.90
2023-05-05T08:25:30.499Z,12.70
2023-05-05T08:27:57.352Z,12.80
2023-05-05T08:30:24.239Z,12.80
2023-05-05T08:32:51.241Z,13.10
2023-05-05T08:35:18.209Z,13.50
2023-05-05T08:37:45.115Z,13.80
2023-05-05T08:40:13.207Z,14.20
2023-05-05T08:42:40.911Z,14.40
2023-05-05T08:45:09.901Z,14.60
2023-05-05T08:47:38.501Z,14.40
2023-05-05T08:50:06.140Z,14.60
2023-05-05T08:52:42.424Z,15.30
2023-05-05T08:55:22.127Z,15.60
2023-05-05T08:57:57.277Z,15.80
2023-05-05T09:00:24.584Z,16.80
2023-05-05T09:02:53.003Z,17.20
2023-05-05T09:05:19.973Z,17.00
2023-05-05T09:07:47.530Z,16.30
2023-05-05T09:10:14.585Z,16.80
2023-05-05T09:12:41.970Z,16.60
2023-05-05T09:15:13.813Z,16.50
2023-05-05T09:17:41.761Z,17.40
2023-05-05T09:20:12.911Z,18.00
2023-05-05T09:22:42.191Z,17.90
2023-05-05T09:25:10.866Z,18.40
2023-05-05T09:27:46.272Z,17.50
2023-05-05T09:30:17.193Z,17.90
2023-05-05T09:32:48.878Z,18.10
2023-05-05T09:35:16.980Z,17.90
2023-05-05T09:37:44.659Z,17.40
2023-05-05T09:40:14.003Z,16.80
2023-05-05T09:42:41.507Z,17.10
2023-05-05T09:45:17.767Z,17.10
2023-05-05T09:47:49.120Z,16.50
2023-05-05T09:50:17.466Z,16.70
2023-05-05T09:53:02.409Z,16.70
2023-05-05T09:55:29.985Z,16.90
2023-05-05T09:57:57.262Z,17.50
2023-05-05T10:00:38.465Z,17.20
2023-05-05T10:03:05.365Z,16.60
2023-05-05T10:05:32.390Z,17.50
2023-05-05T10:08:12.684Z,17.40
2023-05-05T10:10:57.167Z,17.90
2023-05-05T10:13:25.184Z,17.90
2023-05-05T10:15:54.912Z,17.60
2023-05-05T10:18:26.252Z,17.50
2023-05-05T10:21:04.074Z,17.50
2023-05-05T10:23:33.790Z,18.50
2023-05-05T10:26:10.271Z,18.60
2023-05-05T10:28:54.494Z,18.50
2023-05-05T10:31:29.382Z,18.70
2023-05-05T10:34:04.245Z,18.60
2023-05-05T10:36:32.000Z,18.50
2023-05-05T10:39:00.697Z,18.30
2023-05-05T10:41:29.508Z,18.80
2023-05-05T10:43:56.570Z,18.80
2023-05-05T10:46:25.265Z,19.40
2023-05-05T10:49:13.508Z,19.30
2023-05-05T10:51:44.513Z,19.50
2023-05-05T10:54:43.332Z,19.10
2023-05-05T10:57:12.083Z,19.10
2023-05-05T10:59:39.657Z,19.30
2023-05-05T11:02:27.929Z,19.30
2023-05-05T11:05:11.135Z,19.30
2023-05-05T11:07:38.401Z,19.70
2023-05-05T11:10:10.043Z,20.30
2023-05-05T11:13:03.464Z,19.50
2023-05-05T11:15:30.557Z,20.40
2023-05-05T11:17:59.139Z,20.80
2023-05-05T11:20:38.414Z,19.90
2023-05-05T11:23:05.522Z,19.70
2023-05-05T11:25:35.874Z,19.60
2023-05-05T11:28:12.998Z,19.70
2023-05-05T11:31:18.425Z,19.60
2023-05-05T11:33:45.553Z,19.80
2023-05-05T11:36:14.597Z,20.20
2023-05-05T11:38:56.314Z,19.30
2023-05-05T11:41:32.087Z,20.40
2023-05-05T11:44:19.377Z,20.90
2023-05-05T11:46:52.129Z,20.40
2023-05-05T11:49:27.990Z,20.50
2023-05-05T11:51:58.355Z,19.80
2023-05-05T11:54:26.089Z,19.50
2023-05-05T11:56:57.800Z,19.80
2023-05-05T11:59:25.329Z,19.70
2023-05-05T12:01:52.833Z,20.20
2023-05-05T12:04:19.893Z,20.40
2023-05-05T12:06:46.915Z,20.50
2023-05-05T12:09:20.420Z,19.70
2023-05-05T12:11:51.102Z,19.60
2023-05-05T12:14:18.310Z,20.90
2023-05-05T12:16:59.267Z,19.90
2023-05-05T12:19:26.120Z,19.90
2023-05-05T12:21:52.960Z,19.70
2023-05-05T12:24:19.876Z,19.90
2023-05-05T12:26:46.823Z,19.60
2023-05-05T12:29:13.668Z,20.10
2023-05-05T12:31:42.513Z,20.00
2023-05-05T12:34:11.182Z,19.90
2023-05-05T12:36:39.108Z,20.00
2023-05-05T12:39:05.985Z,19.40
2023-05-05T12:41:33.386Z,19.40
2023-05-05T12:44:01.725Z,18.90
2023-05-05T12:46:29.185Z,18.70
2023-05-05T12:49:06.860Z,18.70
2023-05-05T12:51:37.932Z,18.70
2023-05-05T12:54:08.755Z,18.30
2023-05-05T12:56:43.260Z,18.60
2023-05-05T12:59:29.796Z,19.10
2023-05-05T13:01:59.849Z,19.10
2023-05-05T13:04:28.079Z,19.50
2023-05-05T13:07:15.220Z,19.70
2023-05-05T13:09:42.340Z,19.50
2023-05-05T13:12:09.698Z,19.10
2023-05-05T13:14:36.604Z,19.20
2023-05-05T13:17:03.550Z,19.30
2023-05-05T13:19:30.611Z,19.50
2023-05-05T13:21:58.926Z,19.30
2023-05-05T13:24:37.945Z,19.10
2023-05-05T13:27:12.958Z,19.20
2023-05-05T13:29:39.890Z,18.80
2023-05-05T13:32:06.727Z,19.30
2023-05-05T13:34:33.814Z,19.50
2023-05-05T13:37:00.704Z,18.60
2023-05-05T13:39:27.611Z,18.30
2023-05-05T13:41:54.457Z,17.60
2023-05-05T13:44:21.362Z,17.30
2023-05-05T13:46:48.341Z,17.20
2023-05-05T13:49:15.235Z,16.90
2023-05-05T13:51:42.104Z,16.80
2023-05-05T13:54:09.734Z,16.80
2023-05-05T13:56:36.759Z,16.80
2023-05-05T13:59:03.978Z,16.90
2023-05-05T14:01:30.986Z,17.00
2023-05-05T14:03:58.268Z,17.00
2023-05-05T14:06:25.653Z,16.80
2023-05-05T14:08:52.510Z,16.90
2023-05-05T14:11:19.516Z,16.80
2023-05-05T14:13:46.801Z,16.70
2023-05-05T14:16:13.808Z,16.80
2023-05-05T14:18:40.801Z,16.60
2023-05-05T14:21:07.717Z,16.60
2023-05-05T14:23:34.593Z,16.40
2023-05-05T14:26:01.630Z,16.40
2023-05-05T14:28:28.531Z,16.40
2023-05-05T14:30:55.484Z,16.40
2023-05-05T14:33:22.342Z,16.30
2023-05-05T14:35:49.365Z,16.20
2023-05-05T14:38:16.292Z,16.20
2023-05-05T14:40:43.234Z,16.00
2023-05-05T14:43:10.137Z,15.70
2023-05-05T14:45:37.079Z,15.70
2023-05-05T14:48:04.286Z,15.50
2023-05-05T14:50:31.135Z,15.50
2023-05-05T14:52:57.983Z,15.50
2023-05-05T14:55:24.910Z,15.20
2023-05-05T14:57:51.904Z,15.30
2023-05-05T15:00:19.018Z,15.30
2023-05-05T15:02:46.005Z,15.20
2023-05-05T15:05:12.912Z,15.20
2023-05-05T15:07:39.815Z,14.90
2023-05-05T15:10:07.671Z,15.00
2023-05-05T15:12:34.663Z,14.90
2023-05-05T15:15:01.523Z,14.90
2023-05-05T15:17:28.427Z,14.70
2023-05-05T15:19:55.298Z,14.70
2023-05-05T15:22:22.156Z,14.80
2023-05-05T15:24:49.123Z,14.90
2023-05-05T15:27:16.004Z,14.70
2023-05-05T15:29:42.870Z,14.70
2023-05-05T15:32:09.724Z,14.50
2023-05-05T15:34:36.581Z,14.50
2023-05-05T15:37:03.499Z,14.40
2023-05-05T15:39:30.400Z,14.40
2023-05-05T15:41:57.581Z,14.40
2023-05-05T15:44:24.484Z,14.10
2023-05-05T15:46:51.358Z,14.10
2023-05-05T15:49:18.594Z,14.10
2023-05-05T15:51:45.483Z,14.10
2023-05-05T15:54:12.355Z,14.10
2023-05-05T15:56:39.215Z,13.80
2023-05-05T15:59:06.085Z,13.80
2023-05-05T16:01:33.197Z,13.70
2023-05-05T16:04:00.026Z,13.60
2023-05-05T16:06:27.140Z,13.50
2023-05-05T16:08:53.991Z,13.50
2023-05-05T16:11:22.458Z,13.50
2023-05-05T16:13:49.555Z,13.40
2023-05-05T16:16:16.430Z,13.40
2023-05-05T16:18:43.309Z,13.50
2023-05-05T16:21:10.158Z,13.40
2023-05-05T16:23:37.010Z,13.20
2023-05-05T16:26:04.011Z,13.10
2023-05-05T16:28:31.722Z,13.10
2023-05-05T16:30:59.208Z,13.10
2023-05-05T16:33:27.359Z,13.10
2023-05-05T16:35:54.635Z,12.90
2023-05-05T16:38:22.031Z,12.70
2023-05-05T16:40:49.596Z,12.80
2023-05-05T16:43:17.054Z,12.80
2023-05-05T16:45:44.272Z,12.80
2023-05-05T16:48:11.334Z,12.70
2023-05-05T16:50:38.506Z,12.60
2023-05-05T16:53:05.650Z,12.40
2023-05-05T16:55:32.732Z,12.20
2023-05-05T16:57:59.861Z,12.10
2023-05-05T17:00:26.881Z,12.00
2023-05-05T17:02:53.750Z,12.00
2023-05-05T17:05:20.675Z,12.10
2023-05-05T17:07:47.771Z,12.10
2023-05-05T17:10:14.907Z,12.10
2023-05-05T17:12:41.870Z,12.00
2023-05-05T17:15:09.693Z,12.00
2023-05-05T17:17:36.952Z,11.90
2023-05-05T17:20:04.151Z,11.80
2023-05-05T17:22:31.070Z,11.70
2023-05-05T17:24:57.927Z,11.60
2023-05-05T17:27:24.814Z,11.60
2023-05-05T17:29:51.740Z,11.50
2023-05-05T17:32:18.574Z,11.30
2023-05-05T17:34:45.437Z,11.30
2023-05-05T17:37:12.464Z,11.30
2023-05-05T17:39:39.325Z,11.10
2023-05-05T17:42:06.226Z,11.10
2023-05-05T17:44:33.085Z,11.00
2023-05-05T17:47:00.050Z,11.00
2023-05-05T17:49:26.973Z,10.90
2023-05-05T17:51:53.840Z,10.90
2023-05-05T17:54:20.680Z,10.80
2023-05-05T17:56:47.570Z,10.80
2023-05-05T17:59:14.381Z,10.70
2023-05-05T18:01:47.136Z,10.70
2023-05-05T18:04:14.027Z,10.60
2023-05-05T18:06:40.899Z,10.50
2023-05-05T18:09:09.165Z,10.60
2023-05-05T18:11:37.283Z,10.50
2023-05-05T18:14:04.154Z,10.50
2023-05-05T18:16:31.038Z,10.40
2023-05-05T18:18:57.919Z,10.40
2023-05-05T18:21:24.996Z,10.30
2023-05-05T18:23:52.186Z,10.40
2023-05-05T18:26:19.442Z,10.30
2023-05-05T18:28:46.592Z,10.30
2023-05-05T18:31:13.876Z,10.30
2023-05-05T18:33:41.165Z,10.30
2023-05-05T18:36:08.559Z,10.30
2023-05-05T18:38:35.789Z,10.20
2023-05-05T18:41:03.065Z,10.20
2023-05-05T18:43:30.958Z,10.20
2023-05-05T18:45:58.221Z,10.10
2023-05-05T18:48:25.618Z,10.10
2023-05-05T18:50:52.790Z,10.10
2023-05-05T18:53:20.064Z,10.00
2023-05-05T18:55:47.293Z,10.00
2023-05-05T18:58:14.478Z,10.00
2023-05-05T19:00:41.791Z,9.90
2023-05-05T19:03:09.098Z,9.70
2023-05-05T19:05:36.289Z,9.70
2023-05-05T19:08:03.468Z,9.70
2023-05-05T19:10:30.684Z,9.60
2023-05-05T19:12:57.771Z,9.50
2023-05-05T19:15:25.797Z,9.40
2023-05-05T19:17:55.572Z,9.40
2023-05-05T19:20:22.673Z,9.40
2023-05-05T19:22:49.590Z,9.30
2023-05-05T19:25:16.847Z,9.20
2023-05-05T19:27:44.140Z,9.10
2023-05-05T19:30:11.416Z,9.10
2023-05-05T19:32:38.377Z,9.10
2023-05-05T19:35:06.159Z,9.00
2023-05-05T19:37:33.014Z,9.00
2023-05-05T19:39:59.844Z,8.90
2023-05-05T19:42:26.842Z,8.90
2023-05-05T19:44:53.682Z,8.70
2023-05-05T19:47:20.739Z,8.60
2023-05-05T19:49:47.608Z,8.50
2023-05-05T19:52:14.558Z,8.50
2023-05-05T19:54:41.405Z,8.30
2023-05-05T19:57:08.318Z,8.30
2023-05-05T19:59:35.177Z,8.20
2023-05-05T20:02:02.186Z,8.10
2023-05-05T20:04:29.047Z,8.10
2023-05-05T20:06:55.860Z,8.10
2023-05-05T20:09:22.745Z,8.10
2023-05-05T20:11:49.610Z,8.10
2023-05-05T20:14:16.567Z,8.00
2023-05-05T20:16:43.444Z,8.00
2023-05-05T20:19:10.296Z,8.00
2023-05-05T20:21:37.126Z,7.90
2023-05-05T20:24:04.289Z,7.90
2023-05-05T20:26:31.801Z,7.90
2023-05-05T20:28:58.648Z,7.90
2023-05-05T20:31:25.623Z,7.90
2023-05-05T20:33:52.493Z,7.80
2023-05-05T20:36:19.412Z,7.80
2023-05-05T20:38:46.321Z,7.70
2023-05-05T20:41:13.167Z,7.80
2023-05-05T20:43:40.006Z,7.80
2023-05-05T20:46:13.359Z,7.80
2023-05-05T20:48:42.750Z,7.70
2023-05-05T20:51:10.087Z,7.70
2023-05-05T20:53:36.976Z,7.70
2023-05-05T20:56:06.358Z,7.70
2023-05-05T20:58:34.112Z,7.70
2023-05-05T21:01:01.000Z,7.60
2023-05-05T21:03:28.037Z,7.60
2023-05-05T21:05:55.003Z,7.60
2023-05-05T21:08:22.069Z,7.60
2023-05-05T21:10:48.927Z,7.60
2023-05-05T21:13:16.011Z,7.60
2023-05-05T21:15:42.896Z,7.50
2023-05-05T21:18:09.794Z,7.60
2023-05-05T21:20:36.686Z,7.60
2023-05-05T21:23:03.773Z,7.60
2023-05-05T21:25:30.768Z,7.60
2023-05-05T21:27:57.636Z,7.60
2023-05-05T21:30:24.611Z,7.50
2023-05-05T21:32:52.289Z,7.50
2023-05-05T21:35:19.238Z,7.50
2023-05-05T21:37:46.151Z,7.50
2023-05-05T21:40:13.219Z,7.40
2023-05-05T21:42:41.188Z,7.40
2023-05-05T21:45:09.432Z,7.40
2023-05-05T21:47:36.692Z,7.40
2023-05-05T21:50:04.627Z,7.40
2023-05-05T21:52:31.630Z,7.40
2023-05-05T21:54:58.737Z,7.30
2023-05-05T21:57:25.885Z,7.30
2023-05-05T21:59:52.981Z,7.40
2023-05-05T22:02:20.100Z,7.40
2023-05-05T22:04:46.988Z,7.30
2023-05-05T22:07:14.295Z,7.30
2023-05-05T22:09:41.478Z,7.30
2023-05-05T22:12:08.626Z,7.20
2023-05-05T22:14:36.151Z,7.30
2023-05-05T22:17:03.447Z,7.30
2023-05-05T22:19:30.697Z,7.20
2023-05-05T22:21:58.147Z,7.30
2023-05-05T22:24:25.397Z,7.20
2023-05-05T22:26:52.527Z,7.20
2023-05-05T22:29:19.732Z,7.30
2023-05-05T22:31:47.008Z,7.30
2023-05-05T22:34:14.147Z,7.20
2023-05-05T22:36:41.044Z,7.30
2023-05-05T22:39:08.004Z,7.30
2023-05-05T22:41:35.010Z,7.30
2023-05-05T22:44:01.874Z,7.30
2023-05-05T22:46:28.734Z,7.20
2023-05-05T22:48:55.660Z,7.30
2023-05-05T22:51:22.554Z,7.30
2023-05-05T22:53:49.412Z,7.20
2023-05-05T22:56:16.718Z,7.30
2023-05-05T22:58:43.565Z,7.30
2023-05-05T23:01:10.410Z,7.30
2023-05-05T23:03:37.274Z,7.30
2023-05-05T23:06:04.292Z,7.30
2023-05-05T23:08:31.244Z,7.30
2023-05-05T23:10:58.179Z,7.30
2023-05-05T23:13:25.074Z,7.30
2023-05-05T23:15:51.968Z,7.30
2023-05-05T23:18:18.847Z,7.20
2023-05-05T23:20:45.833Z,7.30
2023-05-05T23:23:12.746Z,7.20
2023-05-05T23:25:39.604Z,7.20
2023-05-05T23:28:06.608Z,7.30
2023-05-05T23:30:33.655Z,7.30
2023-05-05T23:33:00.678Z,7.30
2023-05-05T23:35:27.908Z,7.30
2023-05-05T23:37:54.772Z,7.30
2023-05-05T23:40:21.740Z,7.30
2023-05-05T23:42:48.561Z,7.30
2023-05-05T23:45:16.921Z,7.30
2023-05-05T23:47:45.058Z,7.30
2023-05-05T23:50:12.041Z,7.30
2023-05-05T23:52:38.939Z,7.20
2023-05-05T23:55:06.855Z,7.30
2023-05-05T23:57:35.019Z,7.20
